sensor_id;sensor_type;location;lat;lon;timestamp;P1;durP1;ratioP1;P2;durP2;ratioP2
51048;SDS011;37084;55.228;36.450;2023-05-07T00:01:35;7.30;;;3.65;;
51048;SDS011;37084;55.228;36.450;2023-05-07T00:04:37;5.65;;;3.60;;
51048;SDS011;37084;55.228;36.450;2023-05-07T00:07:39;8.15;;;3.63;;
51048;SDS011;37084;55.228;36.450;2023-05-07T00:10:41;7.25;;;3.88;;
51048;SDS011;37084;55.228;36.450;2023-05-07T00:13:42;6.45;;;3.08;;
51048;SDS011;37084;55.228;36.450;2023-05-07T00:16:44;6.13;;;3.35;;
51048;SDS011;37084;55.228;36.450;2023-05-07T00:19:45;7.10;;;3.85;;
51048;SDS011;37084;55.228;36.450;2023-05-07T00:22:47;7.18;;;3.50;;
51048;SDS011;37084;55.228;36.450;2023-05-07T00:25:48;9.02;;;3.95;;
51048;SDS011;37084;55.228;36.450;2023-05-07T00:28:49;9.13;;;4.22;;
51048;SDS011;37084;55.228;36.450;2023-05-07T00:31:51;8.07;;;4.28;;
51048;SDS011;37084;55.228;36.450;2023-05-07T00:34:54;7.00;;;3.92;;
51048;SDS011;37084;55.228;36.450;2023-05-07T00:37:56;7.63;;;3.63;;
51048;SDS011;37084;55.228;36.450;2023-05-07T00:40:58;6.10;;;3.40;;
51048;SDS011;37084;55.228;36.450;2023-05-07T00:43:59;7.50;;;4.35;;
51048;SDS011;37084;55.228;36.450;2023-05-07T00:47:03;11.18;;;6.80;;
51048;SDS011;37084;55.228;36.450;2023-05-07T00:50:04;10.00;;;5.40;;
51048;SDS011;37084;55.228;36.450;2023-05-07T00:53:06;8.10;;;4.57;;
51048;SDS011;37084;55.228;36.450;2023-05-07T00:56:08;6.05;;;3.38;;
51048;SDS011;37084;55.228;36.450;2023-05-07T00:59:09;7.00;;;3.50;;
51048;SDS011;37084;55.228;36.450;2023-05-07T01:02:11;5.80;;;3.28;;
51048;SDS011;37084;55.228;36.450;2023-05-07T01:05:12;4.68;;;2.92;;
51048;SDS011;37084;55.228;36.450;2023-05-07T01:08:15;5.55;;;3.45;;
51048;SDS011;37084;55.228;36.450;2023-05-07T01:11:17;7.75;;;3.47;;
51048;SDS011;37084;55.228;36.450;2023-05-07T01:14:20;8.40;;;3.83;;
51048;SDS011;37084;55.228;36.450;2023-05-07T01:17:22;6.65;;;3.75;;
51048;SDS011;37084;55.228;36.450;2023-05-07T01:20:24;7.45;;;3.40;;
51048;SDS011;37084;55.228;36.450;2023-05-07T01:23:29;7.18;;;3.38;;
51048;SDS011;37084;55.228;36.450;2023-05-07T01:26:31;5.13;;;2.75;;
51048;SDS011;37084;55.228;36.450;2023-05-07T01:29:32;4.32;;;2.38;;
51048;SDS011;37084;55.228;36.450;2023-05-07T01:35:47;5.78;;;2.88;;
51048;SDS011;37084;55.228;36.450;2023-05-07T01:38:50;5.25;;;4.00;;
51048;SDS011;37084;55.228;36.450;2023-05-07T01:41:53;4.95;;;2.67;;
51048;SDS011;37084;55.228;36.450;2023-05-07T01:44:56;7.80;;;3.33;;
51048;SDS011;37084;55.228;36.450;2023-05-07T01:47:58;6.80;;;3.40;;
51048;SDS011;37084;55.228;36.450;2023-05-07T01:51:00;8.18;;;3.40;;
51048;SDS011;37084;55.228;36.450;2023-05-07T01:54:02;8.45;;;3.70;;
51048;SDS011;37084;55.228;36.450;2023-05-07T01:57:05;7.85;;;3.28;;
51048;SDS011;37084;55.228;36.450;2023-05-07T02:00:07;7.55;;;3.38;;
51048;SDS011;37084;55.228;36.450;2023-05-07T02:03:16;10.20;;;3.28;;
51048;SDS011;37084;55.228;36.450;2023-05-07T02:06:26;7.45;;;3.30;;
51048;SDS011;37084;55.228;36.450;2023-05-07T02:09:33;6.63;;;3.28;;
51048;SDS011;37084;55.228;36.450;2023-05-07T02:12:35;8.27;;;3.67;;
51048;SDS011;37084;55.228;36.450;2023-05-07T02:15:36;4.43;;;2.88;;
51048;SDS011;37084;55.228;36.450;2023-05-07T02:18:38;9.52;;;4.25;;
51048;SDS011;37084;55.228;36.450;2023-05-07T02:21:40;7.57;;;2.67;;
51048;SDS011;37084;55.228;36.450;2023-05-07T02:24:41;5.60;;;2.47;;
51048;SDS011;37084;55.228;36.450;2023-05-07T02:27:42;7.25;;;3.40;;
51048;SDS011;37084;55.228;36.450;2023-05-07T02:30:45;7.25;;;3.42;;
51048;SDS011;37084;55.228;36.450;2023-05-07T02:33:46;6.60;;;2.90;;
51048;SDS011;37084;55.228;36.450;2023-05-07T02:36:49;5.57;;;2.88;;
51048;SDS011;37084;55.228;36.450;2023-05-07T02:39:54;6.57;;;3.05;;
51048;SDS011;37084;55.228;36.450;2023-05-07T02:42:55;6.75;;;3.20;;
51048;SDS011;37084;55.228;36.450;2023-05-07T02:46:00;7.70;;;3.40;;
51048;SDS011;37084;55.228;36.450;2023-05-07T02:49:07;6.93;;;3.67;;
51048;SDS011;37084;55.228;36.450;2023-05-07T02:52:08;5.85;;;2.65;;
51048;SDS011;37084;55.228;36.450;2023-05-07T02:55:10;6.60;;;3.13;;
51048;SDS011;37084;55.228;36.450;2023-05-07T02:58:11;7.82;;;3.83;;
51048;SDS011;37084;55.228;36.450;2023-05-07T03:01:14;9.00;;;3.80;;
51048;SDS011;37084;55.228;36.450;2023-05-07T03:04:24;7.90;;;4.13;;
51048;SDS011;37084;55.228;36.450;2023-05-07T03:07:25;8.05;;;3.72;;
51048;SDS011;37084;55.228;36.450;2023-05-07T03:10:26;7.43;;;3.80;;
51048;SDS011;37084;55.228;36.450;2023-05-07T03:13:28;8.18;;;3.30;;
51048;SDS011;37084;55.228;36.450;2023-05-07T03:16:29;7.13;;;3.15;;
51048;SDS011;37084;55.228;36.450;2023-05-07T03:19:31;7.40;;;3.28;;
51048;SDS011;37084;55.228;36.450;2023-05-07T03:22:32;5.95;;;3.28;;
51048;SDS011;37084;55.228;36.450;2023-05-07T03:25:33;7.07;;;3.15;;
51048;SDS011;37084;55.228;36.450;2023-05-07T03:28:36;6.65;;;2.58;;
51048;SDS011;37084;55.228;36.450;2023-05-07T03:31:40;4.70;;;2.90;;
51048;SDS011;37084;55.228;36.450;2023-05-07T03:34:42;7.40;;;3.83;;
51048;SDS011;37084;55.228;36.450;2023-05-07T03:37:46;6.05;;;3.20;;
51048;SDS011;37084;55.228;36.450;2023-05-07T03:40:48;6.43;;;3.38;;
51048;SDS011;37084;55.228;36.450;2023-05-07T03:43:50;5.15;;;3.13;;
51048;SDS011;37084;55.228;36.450;2023-05-07T03:46:52;7.63;;;5.38;;
51048;SDS011;37084;55.228;36.450;2023-05-07T03:49:53;5.70;;;3.08;;
51048;SDS011;37084;55.228;36.450;2023-05-07T03:52:58;4.72;;;3.20;;
51048;SDS011;37084;55.228;36.450;2023-05-07T03:55:59;6.22;;;2.95;;
51048;SDS011;37084;55.228;36.450;2023-05-07T03:59:04;4.75;;;2.75;;
51048;SDS011;37084;55.228;36.450;2023-05-07T04:02:06;3.67;;;1.80;;
51048;SDS011;37084;55.228;36.450;2023-05-07T04:05:08;4.25;;;2.47;;
51048;SDS011;37084;55.228;36.450;2023-05-07T04:08:12;5.30;;;2.50;;
51048;SDS011;37084;55.228;36.450;2023-05-07T04:11:17;3.72;;;2.22;;
51048;SDS011;37084;55.228;36.450;2023-05-07T04:14:19;3.17;;;2.17;;
51048;SDS011;37084;55.228;36.450;2023-05-07T04:17:21;2.28;;;1.70;;
51048;SDS011;37084;55.228;36.450;2023-05-07T04:20:22;4.13;;;2.00;;
51048;SDS011;37084;55.228;36.450;2023-05-07T04:23:31;3.10;;;2.10;;
51048;SDS011;37084;55.228;36.450;2023-05-07T04:26:36;3.42;;;1.73;;
51048;SDS011;37084;55.228;36.450;2023-05-07T04:29:37;2.95;;;2.40;;
51048;SDS011;37084;55.228;36.450;2023-05-07T04:32:45;3.50;;;2.08;;
51048;SDS011;37084;55.228;36.450;2023-05-07T04:35:46;2.80;;;1.95;;
51048;SDS011;37084;55.228;36.450;2023-05-07T04:38:50;2.38;;;1.95;;
51048;SDS011;37084;55.228;36.450;2023-05-07T04:41:53;1.88;;;1.42;;
51048;SDS011;37084;55.228;36.450;2023-05-07T04:44:54;3.00;;;1.60;;
51048;SDS011;37084;55.228;36.450;2023-05-07T04:47:57;2.95;;;2.50;;
51048;SDS011;37084;55.228;36.450;2023-05-07T04:50:59;2.10;;;1.50;;
51048;SDS011;37084;55.228;36.450;2023-05-07T04:54:00;3.17;;;1.88;;
51048;SDS011;37084;55.228;36.450;2023-05-07T04:57:04;2.80;;;2.20;;
51048;SDS011;37084;55.228;36.450;2023-05-07T05:00:06;1.58;;;1.27;;
51048;SDS011;37084;55.228;36.450;2023-05-07T05:03:12;3.83;;;1.63;;
51048;SDS011;37084;55.228;36.450;2023-05-07T05:06:14;3.30;;;1.52;;
51048;SDS011;37084;55.228;36.450;2023-05-07T05:09:16;1.88;;;1.38;;
51048;SDS011;37084;55.228;36.450;2023-05-07T05:12:18;3.03;;;1.80;;
51048;SDS011;37084;55.228;36.450;2023-05-07T05:15:20;2.13;;;1.40;;
51048;SDS011;37084;55.228;36.450;2023-05-07T05:18:22;1.85;;;1.67;;
51048;SDS011;37084;55.228;36.450;2023-05-07T05:21:23;4.10;;;2.30;;
51048;SDS011;37084;55.228;36.450;2023-05-07T05:24:29;2.60;;;1.60;;
51048;SDS011;37084;55.228;36.450;2023-05-07T05:27:31;1.75;;;1.48;;
51048;SDS011;37084;55.228;36.450;2023-05-07T05:30:33;2.05;;;1.77;;
51048;SDS011;37084;55.228;36.450;2023-05-07T05:33:34;3.10;;;1.80;;
51048;SDS011;37084;55.228;36.450;2023-05-07T05:36:39;2.47;;;1.42;;
51048;SDS011;37084;55.228;36.450;2023-05-07T05:39:41;2.38;;;1.48;;
51048;SDS011;37084;55.228;36.450;2023-05-07T05:42:44;3.55;;;2.13;;
51048;SDS011;37084;55.228;36.450;2023-05-07T05:45:47;2.75;;;2.20;;
51048;SDS011;37084;55.228;36.450;2023-05-07T05:48:49;1.27;;;1.17;;
51048;SDS011;37084;55.228;36.450;2023-05-07T05:51:50;1.73;;;1.45;;
51048;SDS011;37084;55.228;36.450;2023-05-07T05:54:53;4.15;;;1.42;;
51048;SDS011;37084;55.228;36.450;2023-05-07T05:57:54;2.38;;;1.45;;
51048;SDS011;37084;55.228;36.450;2023-05-07T06:00:56;3.88;;;1.65;;
51048;SDS011;37084;55.228;36.450;2023-05-07T06:04:01;1.42;;;1.33;;
51048;SDS011;37084;55.228;36.450;2023-05-07T06:07:02;3.38;;;1.83;;
51048;SDS011;37084;55.228;36.450;2023-05-07T06:10:04;2.75;;;2.55;;
51048;SDS011;37084;55.228;36.450;2023-05-07T06:13:07;2.25;;;1.58;;
51048;SDS011;37084;55.228;36.450;2023-05-07T06:16:11;1.95;;;1.38;;
51048;SDS011;37084;55.228;36.450;2023-05-07T06:19:13;2.38;;;1.55;;
51048;SDS011;37084;55.228;36.450;2023-05-07T06:22:15;1.67;;;1.40;;
51048;SDS011;37084;55.228;36.450;2023-05-07T06:25:17;1.83;;;1.73;;
51048;SDS011;37084;55.228;36.450;2023-05-07T06:28:19;2.03;;;1.90;;
51048;SDS011;37084;55.228;36.450;2023-05-07T06:31:21;2.05;;;1.85;;
51048;SDS011;37084;55.228;36.450;2023-05-07T06:34:28;2.42;;;1.88;;
51048;SDS011;37084;55.228;36.450;2023-05-07T06:37:30;1.85;;;1.75;;
51048;SDS011;37084;55.228;36.450;2023-05-07T06:40:36;1.70;;;1.52;;
51048;SDS011;37084;55.228;36.450;2023-05-07T06:43:38;1.45;;;1.30;;
51048;SDS011;37084;55.228;36.450;2023-05-07T06:47:01;2.08;;;1.17;;
51048;SDS011;37084;55.228;36.450;2023-05-07T06:50:03;2.50;;;1.73;;
51048;SDS011;37084;55.228;36.450;2023-05-07T06:53:07;2.88;;;2.67;;
51048;SDS011;37084;55.228;36.450;2023-05-07T06:56:09;1.52;;;1.42;;
51048;SDS011;37084;55.228;36.450;2023-05-07T06:59:11;1.73;;;1.48;;
51048;SDS011;37084;55.228;36.450;2023-05-07T07:02:15;1.95;;;1.25;;
51048;SDS011;37084;55.228;36.450;2023-05-07T07:05:16;1.33;;;1.20;;
51048;SDS011;37084;55.228;36.450;2023-05-07T07:08:18;1.05;;;0.82;;
51048;SDS011;37084;55.228;36.450;2023-05-07T07:11:22;1.35;;;1.25;;
51048;SDS011;37084;55.228;36.450;2023-05-07T07:14:23;1.33;;;1.20;;
51048;SDS011;37084;55.228;36.450;2023-05-07T07:17:26;5.32;;;1.88;;
51048;SDS011;37084;55.228;36.450;2023-05-07T07:20:29;2.08;;;1.90;;
51048;SDS011;37084;55.228;36.450;2023-05-07T07:23:30;2.03;;;1.50;;
51048;SDS011;37084;55.228;36.450;2023-05-07T07:26:32;2.00;;;1.27;;
51048;SDS011;37084;55.228;36.450;2023-05-07T07:29:33;2.17;;;1.40;;
51048;SDS011;37084;55.228;36.450;2023-05-07T07:32:37;1.98;;;1.88;;
51048;SDS011;37084;55.228;36.450;2023-05-07T07:35:39;2.65;;;1.85;;
51048;SDS011;37084;55.228;36.450;2023-05-07T07:38:41;1.77;;;1.13;;
51048;SDS011;37084;55.228;36.450;2023-05-07T07:41:42;2.90;;;1.55;;
51048;SDS011;37084;55.228;36.450;2023-05-07T07:44:45;2.28;;;2.08;;
51048;SDS011;37084;55.228;36.450;2023-05-07T07:47:48;2.55;;;1.42;;
51048;SDS011;37084;55.228;36.450;2023-05-07T07:50:49;3.08;;;1.35;;
51048;SDS011;37084;55.228;36.450;2023-05-07T07:53:53;2.13;;;1.55;;
51048;SDS011;37084;55.228;36.450;2023-05-07T07:56:54;2.35;;;1.38;;
51048;SDS011;37084;55.228;36.450;2023-05-07T07:59:56;1.60;;;1.15;;
51048;SDS011;37084;55.228;36.450;2023-05-07T08:02:57;2.17;;;1.90;;
51048;SDS011;37084;55.228;36.450;2023-05-07T08:06:03;2.22;;;1.25;;
51048;SDS011;37084;55.228;36.450;2023-05-07T08:09:06;1.92;;;1.38;;
51048;SDS011;37084;55.228;36.450;2023-05-07T08:12:07;2.13;;;1.25;;
51048;SDS011;37084;55.228;36.450;2023-05-07T08:15:09;4.65;;;1.55;;
51048;SDS011;37084;55.228;36.450;2023-05-07T08:18:11;1.70;;;1.38;;
51048;SDS011;37084;55.228;36.450;2023-05-07T08:21:13;1.50;;;1.40;;
51048;SDS011;37084;55.228;36.450;2023-05-07T08:24:17;1.98;;;1.55;;
51048;SDS011;37084;55.228;36.450;2023-05-07T08:27:20;1.63;;;1.23;;
51048;SDS011;37084;55.228;36.450;2023-05-07T08:30:21;1.50;;;1.40;;
51048;SDS011;37084;55.228;36.450;2023-05-07T08:33:23;4.22;;;2.08;;
51048;SDS011;37084;55.228;36.450;2023-05-07T08:36:24;2.15;;;1.35;;
51048;SDS011;37084;55.228;36.450;2023-05-07T08:39:26;1.70;;;1.13;;
51048;SDS011;37084;55.228;36.450;2023-05-07T08:42:29;1.33;;;1.23;;
51048;SDS011;37084;55.228;36.450;2023-05-07T08:45:33;1.73;;;1.30;;
51048;SDS011;37084;55.228;36.450;2023-05-07T08:48:35;1.95;;;1.63;;
51048;SDS011;37084;55.228;36.450;2023-05-07T08:51:45;1.63;;;1.42;;
51048;SDS011;37084;55.228;36.450;2023-05-07T08:54:48;2.33;;;1.95;;
51048;SDS011;37084;55.228;36.450;2023-05-07T08:57:50;2.33;;;1.15;;
51048;SDS011;37084;55.228;36.450;2023-05-07T09:00:54;1.75;;;1.35;;
51048;SDS011;37084;55.228;36.450;2023-05-07T09:03:57;3.70;;;1.70;;
51048;SDS011;37084;55.228;36.450;2023-05-07T09:07:01;2.45;;;1.42;;
51048;SDS011;37084;55.228;36.450;2023-05-07T09:10:09;1.80;;;1.23;;
51048;SDS011;37084;55.228;36.450;2023-05-07T09:13:13;4.00;;;1.95;;
51048;SDS011;37084;55.228;36.450;2023-05-07T09:16:15;3.70;;;1.48;;
51048;SDS011;37084;55.228;36.450;2023-05-07T09:19:23;2.28;;;1.30;;
51048;SDS011;37084;55.228;36.450;2023-05-07T09:22:25;4.35;;;1.40;;
51048;SDS011;37084;55.228;36.450;2023-05-07T09:25:34;2.10;;;1.40;;
51048;SDS011;37084;55.228;36.450;2023-05-07T09:28:41;1.23;;;1.10;;
51048;SDS011;37084;55.228;36.450;2023-05-07T09:31:45;1.75;;;1.65;;
51048;SDS011;37084;55.228;36.450;2023-05-07T09:34:49;2.05;;;1.85;;
51048;SDS011;37084;55.228;36.450;2023-05-07T09:37:57;2.20;;;1.48;;
51048;SDS011;37084;55.228;36.450;2023-05-07T09:41:10;2.55;;;1.60;;
51048;SDS011;37084;55.228;36.450;2023-05-07T09:44:28;2.33;;;1.30;;
51048;SDS011;37084;55.228;36.450;2023-05-07T09:47:29;1.40;;;1.30;;
51048;SDS011;37084;55.228;36.450;2023-05-07T09:50:40;2.20;;;1.45;;
51048;SDS011;37084;55.228;36.450;2023-05-07T09:53:50;1.63;;;1.42;;
51048;SDS011;37084;55.228;36.450;2023-05-07T09:56:53;3.42;;;2.13;;
51048;SDS011;37084;55.228;36.450;2023-05-07T09:59:57;4.18;;;1.95;;
51048;SDS011;37084;55.228;36.450;2023-05-07T10:03:00;2.35;;;2.03;;
51048;SDS011;37084;55.228;36.450;2023-05-07T10:06:11;1.50;;;1.40;;
51048;SDS011;37084;55.228;36.450;2023-05-07T10:09:14;1.55;;;1.17;;
51048;SDS011;37084;55.228;36.450;2023-05-07T10:12:16;2.75;;;1.55;;
51048;SDS011;37084;55.228;36.450;2023-05-07T10:15:19;2.15;;;1.10;;
51048;SDS011;37084;55.228;36.450;2023-05-07T10:18:25;4.32;;;1.20;;
51048;SDS011;37084;55.228;36.450;2023-05-07T10:21:39;1.48;;;1.38;;
51048;SDS011;37084;55.228;36.450;2023-05-07T10:24:49;2.13;;;1.27;;
51048;SDS011;37084;55.228;36.450;2023-05-07T10:27:55;1.42;;;1.23;;
51048;SDS011;37084;55.228;36.450;2023-05-07T10:34:28;1.65;;;1.25;;
51048;SDS011;37084;55.228;36.450;2023-05-07T10:37:33;3.75;;;2.30;;
51048;SDS011;37084;55.228;36.450;2023-05-07T10:40:35;2.25;;;2.05;;
51048;SDS011;37084;55.228;36.450;2023-05-07T10:43:40;2.63;;;1.63;;
51048;SDS011;37084;55.228;36.450;2023-05-07T10:46:44;1.50;;;1.33;;
51048;SDS011;37084;55.228;36.450;2023-05-07T10:53:20;2.67;;;1.15;;
51048;SDS011;37084;55.228;36.450;2023-05-07T10:56:42;2.05;;;1.13;;
51048;SDS011;37084;55.228;36.450;2023-05-07T10:59:49;1.70;;;1.27;;
51048;SDS011;37084;55.228;36.450;2023-05-07T11:09:14;1.55;;;1.17;;
51048;SDS011;37084;55.228;36.450;2023-05-07T11:15:38;3.72;;;2.13;;
51048;SDS011;37084;55.228;36.450;2023-05-07T11:18:53;1.98;;;1.77;;
51048;SDS011;37084;55.228;36.450;2023-05-07T11:22:02;1.73;;;1.63;;
51048;SDS011;37084;55.228;36.450;2023-05-07T11:25:17;4.93;;;2.30;;
51048;SDS011;37084;55.228;36.450;2023-05-07T11:28:28;2.42;;;1.75;;
51048;SDS011;37084;55.228;36.450;2023-05-07T11:31:36;3.92;;;1.40;;
51048;SDS011;37084;55.228;36.450;2023-05-07T11:34:38;1.83;;;1.10;;
51048;SDS011;37084;55.228;36.450;2023-05-07T11:37:39;2.03;;;1.08;;
51048;SDS011;37084;55.228;36.450;2023-05-07T11:40:52;3.00;;;1.17;;
51048;SDS011;37084;55.228;36.450;2023-05-07T11:43:57;4.55;;;3.72;;
51048;SDS011;37084;55.228;36.450;2023-05-07T11:46:59;4.60;;;1.80;;
51048;SDS011;37084;55.228;36.450;2023-05-07T11:50:03;2.55;;;1.50;;
51048;SDS011;37084;55.228;36.450;2023-05-07T11:53:09;2.47;;;2.25;;
51048;SDS011;37084;55.228;36.450;2023-05-07T11:56:14;6.28;;;3.17;;
51048;SDS011;37084;55.228;36.450;2023-05-07T11:59:17;6.18;;;2.50;;
51048;SDS011;37084;55.228;36.450;2023-05-07T12:02:19;2.47;;;1.27;;
51048;SDS011;37084;55.228;36.450;2023-05-07T12:05:21;5.43;;;1.85;;
51048;SDS011;37084;55.228;36.450;2023-05-07T12:08:22;2.05;;;1.42;;
51048;SDS011;37084;55.228;36.450;2023-05-07T12:11:24;3.47;;;1.02;;
51048;SDS011;37084;55.228;36.450;2023-05-07T12:14:29;4.22;;;1.67;;
51048;SDS011;37084;55.228;36.450;2023-05-07T12:17:31;2.13;;;1.38;;
51048;SDS011;37084;55.228;36.450;2023-05-07T12:20:33;2.08;;;1.38;;
51048;SDS011;37084;55.228;36.450;2023-05-07T12:23:38;2.65;;;2.33;;
51048;SDS011;37084;55.228;36.450;2023-05-07T12:26:40;11.65;;;7.82;;
51048;SDS011;37084;55.228;36.450;2023-05-07T12:29:48;3.08;;;1.58;;
51048;SDS011;37084;55.228;36.450;2023-05-07T12:32:53;1.25;;;1.10;;
51048;SDS011;37084;55.228;36.450;2023-05-07T12:35:55;1.75;;;1.40;;
51048;SDS011;37084;55.228;36.450;2023-05-07T12:38:57;2.95;;;1.45;;
51048;SDS011;37084;55.228;36.450;2023-05-07T12:42:01;2.45;;;2.25;;
51048;SDS011;37084;55.228;36.450;2023-05-07T12:45:11;2.00;;;1.30;;
51048;SDS011;37084;55.228;36.450;2023-05-07T12:48:14;1.95;;;1.15;;
51048;SDS011;37084;55.228;36.450;2023-05-07T12:51:15;1.80;;;0.90;;
51048;SDS011;37084;55.228;36.450;2023-05-07T12:57:30;2.17;;;1.10;;
51048;SDS011;37084;55.228;36.450;2023-05-07T13:00:32;2.45;;;0.98;;
51048;SDS011;37084;55.228;36.450;2023-05-07T13:03:35;5.38;;;1.50;;
51048;SDS011;37084;55.228;36.450;2023-05-07T13:06:37;2.78;;;1.80;;
51048;SDS011;37084;55.228;36.450;2023-05-07T13:09:39;2.17;;;1.20;;
51048;SDS011;37084;55.228;36.450;2023-05-07T13:12:40;1.73;;;1.38;;
51048;SDS011;37084;55.228;36.450;2023-05-07T13:15:41;1.48;;;1.00;;
51048;SDS011;37084;55.228;36.450;2023-05-07T13:18:42;2.15;;;1.33;;
51048;SDS011;37084;55.228;36.450;2023-05-07T13:21:46;3.05;;;1.38;;
51048;SDS011;37084;55.228;36.450;2023-05-07T13:24:47;3.03;;;1.50;;
51048;SDS011;37084;55.228;36.450;2023-05-07T13:27:48;9.73;;;4.40;;
51048;SDS011;37084;55.228;36.450;2023-05-07T13:30:50;1.15;;;1.05;;
51048;SDS011;37084;55.228;36.450;2023-05-07T13:33:52;2.40;;;2.20;;
51048;SDS011;37084;55.228;36.450;2023-05-07T13:36:53;1.48;;;1.13;;
51048;SDS011;37084;55.228;36.450;2023-05-07T13:39:56;1.55;;;1.33;;
51048;SDS011;37084;55.228;36.450;2023-05-07T13:42:57;3.50;;;1.45;;
51048;SDS011;37084;55.228;36.450;2023-05-07T13:46:00;2.40;;;1.33;;
51048;SDS011;37084;55.228;36.450;2023-05-07T13:49:02;2.03;;;0.82;;
51048;SDS011;37084;55.228;36.450;2023-05-07T13:52:03;1.15;;;1.05;;
51048;SDS011;37084;55.228;36.450;2023-05-07T13:55:05;1.60;;;1.40;;
51048;SDS011;37084;55.228;36.450;2023-05-07T13:58:06;3.42;;;1.80;;
51048;SDS011;37084;55.228;36.450;2023-05-07T14:01:08;1.80;;;1.67;;
51048;SDS011;37084;55.228;36.450;2023-05-07T14:04:09;2.22;;;1.20;;
51048;SDS011;37084;55.228;36.450;2023-05-07T14:07:10;2.97;;;1.23;;
51048;SDS011;37084;55.228;36.450;2023-05-07T14:10:12;1.50;;;1.00;;
51048;SDS011;37084;55.228;36.450;2023-05-07T14:13:14;1.50;;;1.08;;
51048;SDS011;37084;55.228;36.450;2023-05-07T14:16:15;2.53;;;1.23;;
51048;SDS011;37084;55.228;36.450;2023-05-07T14:19:16;3.88;;;1.05;;
51048;SDS011;37084;55.228;36.450;2023-05-07T14:22:18;2.13;;;1.38;;
51048;SDS011;37084;55.228;36.450;2023-05-07T14:25:19;1.13;;;0.98;;
51048;SDS011;37084;55.228;36.450;2023-05-07T14:28:25;6.45;;;2.00;;
51048;SDS011;37084;55.228;36.450;2023-05-07T14:31:26;3.60;;;1.65;;
51048;SDS011;37084;55.228;36.450;2023-05-07T14:34:28;4.32;;;1.30;;
51048;SDS011;37084;55.228;36.450;2023-05-07T14:37:29;5.82;;;3.60;;
51048;SDS011;37084;55.228;36.450;2023-05-07T14:40:30;3.50;;;1.42;;
51048;SDS011;37084;55.228;36.450;2023-05-07T14:43:32;2.25;;;2.05;;
51048;SDS011;37084;55.228;36.450;2023-05-07T14:46:33;3.35;;;1.77;;
51048;SDS011;37084;55.228;36.450;2023-05-07T14:49:35;3.47;;;1.73;;
51048;SDS011;37084;55.228;36.450;2023-05-07T14:52:36;2.75;;;1.63;;
51048;SDS011;37084;55.228;36.450;2023-05-07T14:55:38;4.93;;;3.53;;
51048;SDS011;37084;55.228;36.450;2023-05-07T14:58:39;3.03;;;2.75;;
51048;SDS011;37084;55.228;36.450;2023-05-07T15:01:40;10.32;;;5.35;;
51048;SDS011;37084;55.228;36.450;2023-05-07T15:04:46;4.10;;;2.08;;
51048;SDS011;37084;55.228;36.450;2023-05-07T15:07:47;3.28;;;1.20;;
51048;SDS011;37084;55.228;36.450;2023-05-07T15:10:48;3.22;;;2.78;;
51048;SDS011;37084;55.228;36.450;2023-05-07T15:13:50;4.00;;;1.27;;
51048;SDS011;37084;55.228;36.450;2023-05-07T15:16:51;1.92;;;1.25;;
51048;SDS011;37084;55.228;36.450;2023-05-07T15:19:52;1.95;;;1.25;;
51048;SDS011;37084;55.228;36.450;2023-05-07T15:22:54;3.25;;;1.10;;
51048;SDS011;37084;55.228;36.450;2023-05-07T15:25:56;2.05;;;1.42;;
51048;SDS011;37084;55.228;36.450;2023-05-07T15:28:58;1.83;;;1.52;;
51048;SDS011;37084;55.228;36.450;2023-05-07T15:31:59;3.13;;;2.38;;
51048;SDS011;37084;55.228;36.450;2023-05-07T15:35:00;1.20;;;1.02;;
51048;SDS011;37084;55.228;36.450;2023-05-07T15:38:04;1.35;;;1.13;;
51048;SDS011;37084;55.228;36.450;2023-05-07T15:41:06;2.63;;;1.63;;
51048;SDS011;37084;55.228;36.450;2023-05-07T15:44:07;2.22;;;2.00;;
51048;SDS011;37084;55.228;36.450;2023-05-07T15:47:08;1.83;;;1.33;;
51048;SDS011;37084;55.228;36.450;2023-05-07T15:50:09;1.23;;;1.13;;
51048;SDS011;37084;55.228;36.450;2023-05-07T15:53:11;3.08;;;1.60;;
51048;SDS011;37084;55.228;36.450;2023-05-07T15:56:13;2.55;;;1.80;;
51048;SDS011;37084;55.228;36.450;2023-05-07T15:59:15;1.58;;;1.30;;
51048;SDS011;37084;55.228;36.450;2023-05-07T16:02:17;3.90;;;1.88;;
51048;SDS011;37084;55.228;36.450;2023-05-07T16:05:18;2.50;;;1.73;;
51048;SDS011;37084;55.228;36.450;2023-05-07T16:08:19;2.03;;;1.63;;
51048;SDS011;37084;55.228;36.450;2023-05-07T16:11:21;2.17;;;1.60;;
51048;SDS011;37084;55.228;36.450;2023-05-07T16:14:22;4.57;;;2.30;;
51048;SDS011;37084;55.228;36.450;2023-05-07T16:17:24;2.70;;;1.58;;
51048;SDS011;37084;55.228;36.450;2023-05-07T16:20:28;3.78;;;2.40;;
51048;SDS011;37084;55.228;36.450;2023-05-07T16:23:30;7.85;;;4.97;;
51048;SDS011;37084;55.228;36.450;2023-05-07T16:26:31;9.27;;;5.28;;
51048;SDS011;37084;55.228;36.450;2023-05-07T16:29:33;3.10;;;2.10;;
51048;SDS011;37084;55.228;36.450;2023-05-07T16:32:34;4.13;;;2.38;;
51048;SDS011;37084;55.228;36.450;2023-05-07T16:35:36;2.22;;;1.63;;
51048;SDS011;37084;55.228;36.450;2023-05-07T16:38:37;3.88;;;1.60;;
51048;SDS011;37084;55.228;36.450;2023-05-07T16:41:38;1.95;;;1.63;;
51048;SDS011;37084;55.228;36.450;2023-05-07T16:44:40;3.42;;;1.60;;
51048;SDS011;37084;55.228;36.450;2023-05-07T16:47:41;3.25;;;1.77;;
51048;SDS011;37084;55.228;36.450;2023-05-07T16:50:43;3.30;;;1.58;;
51048;SDS011;37084;55.228;36.450;2023-05-07T16:53:44;2.63;;;1.75;;
51048;SDS011;37084;55.228;36.450;2023-05-07T16:56:45;2.30;;;1.52;;
51048;SDS011;37084;55.228;36.450;2023-05-07T16:59:47;2.60;;;1.85;;
51048;SDS011;37084;55.228;36.450;2023-05-07T17:02:48;8.43;;;4.15;;
51048;SDS011;37084;55.228;36.450;2023-05-07T17:05:50;20.27;;;7.35;;
51048;SDS011;37084;55.228;36.450;2023-05-07T17:08:51;30.63;;;12.75;;
51048;SDS011;37084;55.228;36.450;2023-05-07T17:11:53;54.30;;;20.15;;
51048;SDS011;37084;55.228;36.450;2023-05-07T17:14:56;57.75;;;20.45;;
51048;SDS011;37084;55.228;36.450;2023-05-07T17:17:57;67.47;;;27.20;;
51048;SDS011;37084;55.228;36.450;2023-05-07T17:20:58;29.25;;;12.90;;
51048;SDS011;37084;55.228;36.450;2023-05-07T17:24:00;23.85;;;18.08;;
51048;SDS011;37084;55.228;36.450;2023-05-07T17:27:01;10.38;;;6.88;;
51048;SDS011;37084;55.228;36.450;2023-05-07T17:30:02;8.52;;;5.53;;
51048;SDS011;37084;55.228;36.450;2023-05-07T17:33:07;6.07;;;3.28;;
51048;SDS011;37084;55.228;36.450;2023-05-07T17:36:08;8.65;;;2.63;;
51048;SDS011;37084;55.228;36.450;2023-05-07T17:39:09;20.50;;;13.63;;
51048;SDS011;37084;55.228;36.450;2023-05-07T17:42:11;12.43;;;9.32;;
51048;SDS011;37084;55.228;36.450;2023-05-07T17:45:12;8.90;;;6.57;;
51048;SDS011;37084;55.228;36.450;2023-05-07T17:48:15;9.52;;;4.93;;
51048;SDS011;37084;55.228;36.450;2023-05-07T17:51:17;12.88;;;6.50;;
51048;SDS011;37084;55.228;36.450;2023-05-07T17:54:18;8.10;;;4.57;;
51048;SDS011;37084;55.228;36.450;2023-05-07T17:57:21;57.58;;;20.63;;
51048;SDS011;37084;55.228;36.450;2023-05-07T18:00:23;33.97;;;15.23;;
51048;SDS011;37084;55.228;36.450;2023-05-07T18:03:24;15.35;;;6.82;;
51048;SDS011;37084;55.228;36.450;2023-05-07T18:06:25;16.00;;;7.32;;
51048;SDS011;37084;55.228;36.450;2023-05-07T18:09:27;16.98;;;7.32;;
51048;SDS011;37084;55.228;36.450;2023-05-07T18:12:28;15.60;;;6.60;;
51048;SDS011;37084;55.228;36.450;2023-05-07T18:15:29;12.48;;;4.75;;
51048;SDS011;37084;55.228;36.450;2023-05-07T18:18:31;13.07;;;4.82;;
51048;SDS011;37084;55.228;36.450;2023-05-07T18:21:35;13.38;;;5.10;;
51048;SDS011;37084;55.228;36.450;2023-05-07T18:24:36;8.75;;;3.35;;
51048;SDS011;37084;55.228;36.450;2023-05-07T18:27:37;8.25;;;3.20;;